createdAt,value
2023-03-29T00:02:17.814Z,35.84
2023-03-29T00:04:44.207Z,35.80
2023-03-29T00:07:10.544Z,35.82
2023-03-29T00:09:36.951Z,35.85
2023-03-29T00:12:03.316Z,35.83
2023-03-29T00:14:29.670Z,35.84
2023-03-29T00:16:56.112Z,35.83
2023-03-29T00:19:22.419Z,35.84
2023-03-29T00:21:48.798Z,35.85
2023-03-29T00:24:15.181Z,35.85
2023-03-29T00:26:41.549Z,35.87
2023-03-29T00:29:07.979Z,35.87
2023-03-29T00:31:34.415Z,35.91
2023-03-29T00:34:00.718Z,35.92
2023-03-29T00:36:27.111Z,35.91
2023-03-29T00:38:53.472Z,35.94
2023-03-29T00:41:19.877Z,35.99
2023-03-29T00:43:46.220Z,35.99
2023-03-29T00:46:12.662Z,36.00
2023-03-29T00:48:39.001Z,35.99
2023-03-29T00:51:05.399Z,35.99
2023-03-29T00:53:32.733Z,36.03
2023-03-29T00:55:58.170Z,36.02
2023-03-29T00:58:24.658Z,36.06
2023-03-29T01:00:51.121Z,36.09
2023-03-29T01:03:17.551Z,36.08
2023-03-29T01:05:43.859Z,36.14
2023-03-29T01:08:10.202Z,36.11
2023-03-29T01:10:36.596Z,36.08
2023-03-29T01:13:02.944Z,36.14
2023-03-29T01:15:29.345Z,36.15
2023-03-29T01:17:55.751Z,36.15
2023-03-29T01:20:22.122Z,36.19
2023-03-29T01:22:48.453Z,36.19
2023-03-29T01:25:14.806Z,36.20
2023-03-29T01:27:41.218Z,36.22
2023-03-29T01:30:07.580Z,36.23
2023-03-29T01:32:34.010Z,36.23
2023-03-29T01:35:00.316Z,36.26
2023-03-29T01:37:26.757Z,36.25
2023-03-29T01:39:53.112Z,36.27
2023-03-29T01:42:19.486Z,36.26
2023-03-29T01:44:45.815Z,36.26
2023-03-29T01:47:12.203Z,36.25
2023-03-29T01:52:23.874Z,36.23
2023-03-29T01:54:50.272Z,36.22
2023-03-29T01:57:16.730Z,36.19
2023-03-29T01:59:43.031Z,36.23
2023-03-29T02:02:09.458Z,36.22
2023-03-29T02:04:35.779Z,36.21
2023-03-29T02:07:02.159Z,36.22
2023-03-29T02:09:28.576Z,36.12
2023-03-29T02:11:54.966Z,35.83
2023-03-29T02:14:21.312Z,35.67
2023-03-29T02:16:47.718Z,35.50
2023-03-29T02:19:14.070Z,35.35
2023-03-29T02:21:40.501Z,35.20
2023-03-29T02:24:07.869Z,34.97
2023-03-29T02:26:33.276Z,34.78
2023-03-29T02:28:59.623Z,34.88
2023-03-29T02:31:26.053Z,34.98
2023-03-29T02:33:52.359Z,35.00
2023-03-29T02:36:18.864Z,35.42
2023-03-29T02:38:45.166Z,35.72
2023-03-29T02:41:11.617Z,35.83
2023-03-29T02:43:37.965Z,35.55
2023-03-29T02:46:04.346Z,35.23
2023-03-29T02:48:30.697Z,35.02
2023-03-29T02:50:57.088Z,34.82
2023-03-29T02:53:23.439Z,35.01
2023-03-29T02:55:49.821Z,35.27
2023-03-29T02:58:16.171Z,35.17
2023-03-29T03:00:42.569Z,35.11
2023-03-29T03:03:09.110Z,35.01
2023-03-29T03:05:35.345Z,34.72
2023-03-29T03:08:01.722Z,34.38
2023-03-29T03:10:28.113Z,34.24
2023-03-29T03:12:54.497Z,34.07
2023-03-29T03:15:20.891Z,34.08
2023-03-29T03:17:47.349Z,34.27
2023-03-29T03:20:13.757Z,34.66
2023-03-29T03:22:40.054Z,35.03
2023-03-29T03:25:06.441Z,35.22
2023-03-29T03:27:32.800Z,35.32
2023-03-29T03:29:59.196Z,35.60
2023-03-29T03:32:25.577Z,35.64
2023-03-29T03:34:51.940Z,35.73
2023-03-29T03:37:18.303Z,35.48
2023-03-29T03:39:44.682Z,35.22
2023-03-29T03:42:11.098Z,35.27
2023-03-29T03:44:37.476Z,35.06
2023-03-29T03:47:03.823Z,34.67
2023-03-29T03:49:30.212Z,34.61
2023-03-29T03:51:56.553Z,34.32
2023-03-29T03:54:22.952Z,34.56
2023-03-29T03:56:49.321Z,34.40
2023-03-29T03:59:15.688Z,38.92
2023-03-29T04:01:42.041Z,35.25
2023-03-29T04:04:08.531Z,34.45
2023-03-29T04:06:34.830Z,34.25
2023-03-29T04:09:01.221Z,34.11
2023-03-29T04:11:27.566Z,34.15
2023-03-29T04:13:53.964Z,34.08
2023-03-29T04:16:20.444Z,34.08
2023-03-29T04:18:46.881Z,34.14
2023-03-29T04:21:13.188Z,34.23
2023-03-29T04:23:39.590Z,34.39
2023-03-29T04:26:05.940Z,34.53
2023-03-29T04:28:32.343Z,34.49
2023-03-29T04:30:58.705Z,34.42
2023-03-29T04:33:25.074Z,34.61
2023-03-29T04:35:51.444Z,34.29
2023-03-29T04:40:15.910Z,34.17
2023-03-29T04:42:42.314Z,34.27
2023-03-29T04:45:08.689Z,34.14
2023-03-29T04:47:35.143Z,34.01
2023-03-29T04:50:01.467Z,33.64
2023-03-29T04:52:27.850Z,33.41
2023-03-29T04:54:54.208Z,33.37
2023-03-29T04:57:20.681Z,33.38
2023-03-29T04:59:46.961Z,33.47
2023-03-29T05:02:13.386Z,33.32
2023-03-29T05:04:39.776Z,33.35
2023-03-29T05:07:06.128Z,33.51
2023-03-29T05:09:35.029Z,33.61
2023-03-29T05:11:58.885Z,33.85
2023-03-29T05:14:25.245Z,33.92
2023-03-29T05:16:51.642Z,33.78
2023-03-29T05:19:17.985Z,33.60
2023-03-29T05:21:45.608Z,33.58
2023-03-29T05:24:10.735Z,33.41
2023-03-29T05:26:37.124Z,33.02
2023-03-29T05:29:03.485Z,33.07
2023-03-29T05:31:29.909Z,33.17
2023-03-29T05:33:56.416Z,33.51
2023-03-29T05:36:22.810Z,33.74
2023-03-29T05:38:49.179Z,33.65
2023-03-29T05:41:15.592Z,33.65
2023-03-29T05:43:41.964Z,33.84
2023-03-29T05:46:08.355Z,33.94
2023-03-29T05:48:34.696Z,34.05
2023-03-29T05:51:01.220Z,34.02
2023-03-29T05:53:27.461Z,33.83
2023-03-29T05:55:53.847Z,33.20
2023-03-29T05:58:20.278Z,33.91
2023-03-29T06:00:46.634Z,33.96
2023-03-29T06:03:18.032Z,33.43
2023-03-29T06:05:39.417Z,33.18
2023-03-29T06:08:05.789Z,33.55
2023-03-29T06:10:32.187Z,33.22
2023-03-29T06:12:58.540Z,33.37
2023-03-29T06:15:24.938Z,33.77
2023-03-29T06:17:51.344Z,33.61
2023-03-29T06:20:17.718Z,33.52
2023-03-29T06:22:44.080Z,33.76
2023-03-29T06:25:10.462Z,33.89
2023-03-29T06:27:36.840Z,34.04
2023-03-29T06:30:03.232Z,33.94
2023-03-29T06:32:29.615Z,34.18
2023-03-29T06:34:55.990Z,34.72
2023-03-29T06:37:22.406Z,34.54
2023-03-29T06:39:49.536Z,34.56
2023-03-29T06:42:21.068Z,34.62
2023-03-29T06:44:41.546Z,34.50
2023-03-29T06:47:07.906Z,34.58
2023-03-29T06:49:34.368Z,34.63
2023-03-29T06:52:00.714Z,34.61
2023-03-29T06:54:27.116Z,34.72
2023-03-29T06:56:53.490Z,34.27
2023-03-29T06:59:19.880Z,33.93
2023-03-29T07:01:46.386Z,34.06
2023-03-29T07:04:12.681Z,33.95
2023-03-29T07:06:39.056Z,33.89
2023-03-29T07:09:05.451Z,33.92
2023-03-29T07:11:31.795Z,34.18
2023-03-29T07:13:58.201Z,34.13
2023-03-29T07:16:24.648Z,33.99
2023-03-29T07:18:50.982Z,34.19
2023-03-29T07:21:17.332Z,34.09
2023-03-29T07:23:43.728Z,34.31
2023-03-29T07:26:10.091Z,34.45
2023-03-29T07:28:36.504Z,34.46
2023-03-29T07:31:03.028Z,33.62
2023-03-29T07:33:29.381Z,33.40
2023-03-29T07:35:55.702Z,33.20
2023-03-29T07:38:22.142Z,33.20
2023-03-29T07:40:48.500Z,33.44
2023-03-29T07:43:14.895Z,33.47
2023-03-29T07:45:41.278Z,33.54
2023-03-29T07:48:07.767Z,33.42
2023-03-29T07:50:34.066Z,33.56
2023-03-29T07:53:00.463Z,33.62
2023-03-29T07:55:26.807Z,33.76
2023-03-29T07:57:53.267Z,33.96
2023-03-29T08:00:19.720Z,33.77
2023-03-29T08:02:46.129Z,33.25
2023-03-29T08:05:12.444Z,33.49
2023-03-29T08:07:38.820Z,32.85
2023-03-29T08:10:05.174Z,31.56
2023-03-29T08:12:31.578Z,31.56
2023-03-29T08:14:57.974Z,32.08
2023-03-29T08:17:24.358Z,32.50
2023-03-29T08:19:52.438Z,33.14
2023-03-29T08:22:17.137Z,33.03
2023-03-29T08:24:43.503Z,33.45
2023-03-29T08:27:09.894Z,33.30
2023-03-29T08:29:36.242Z,33.40
2023-03-29T08:32:02.764Z,33.26
2023-03-29T08:34:29.141Z,33.66
2023-03-29T08:36:55.526Z,33.68
2023-03-29T08:39:21.887Z,33.61
2023-03-29T08:41:48.322Z,33.71
2023-03-29T08:44:14.680Z,33.82
2023-03-29T08:46:41.212Z,34.10
2023-03-29T08:49:07.521Z,34.10
2023-03-29T08:51:33.924Z,33.99
2023-03-29T08:54:00.291Z,34.51
2023-03-29T08:56:26.690Z,34.51
2023-03-29T08:58:53.097Z,34.17
2023-03-29T09:01:19.569Z,34.17
2023-03-29T09:03:46.049Z,33.79
2023-03-29T09:06:12.358Z,33.88
2023-03-29T09:08:38.697Z,33.89
2023-03-29T09:11:05.079Z,34.63
2023-03-29T09:13:31.447Z,34.63
2023-03-29T09:15:57.836Z,34.62
2023-03-29T09:18:24.173Z,35.02
2023-03-29T09:20:50.592Z,34.63
2023-03-29T09:23:17.116Z,34.63
2023-03-29T09:25:52.608Z,35.21
2023-03-29T09:28:09.803Z,34.99
2023-03-29T09:30:36.193Z,34.83
2023-03-29T09:33:02.590Z,34.68
2023-03-29T09:35:28.962Z,35.01
2023-03-29T09:37:55.287Z,34.94
2023-03-29T09:40:21.683Z,34.95
2023-03-29T09:42:48.025Z,34.46
